createdAt,value
2019-05-03T00:13:55.728Z,8.53
2019-05-03T00:28:55.938Z,8.33
2019-05-03T00:43:56.130Z,8.20
2019-05-03T00:58:56.349Z,8.02
2019-05-03T01:13:56.622Z,7.85
2019-05-03T01:28:56.972Z,7.68
2019-05-03T01:43:57.221Z,7.55
2019-05-03T01:58:57.505Z,7.37
2019-05-03T02:13:57.807Z,6.77
2019-05-03T02:28:58.116Z,6.51
2019-05-03T02:43:58.327Z,5.97
2019-05-03T02:58:58.525Z,5.65
2019-05-03T03:13:58.754Z,5.45
2019-05-03T03:28:59.333Z,5.33
2019-05-03T03:43:59.708Z,5.13
2019-05-03T03:58:59.851Z,5.17
2019-05-03T04:14:00.036Z,5.24
2019-05-03T04:29:00.313Z,5.35
2019-05-03T04:44:00.448Z,5.58
2019-05-03T04:59:00.689Z,5.61
2019-05-03T05:14:00.836Z,6.28
2019-05-03T05:29:01.115Z,6.81
2019-05-03T05:44:01.269Z,7.39
2019-05-03T05:59:01.537Z,8.38
2019-05-03T06:14:01.647Z,9.29
2019-05-03T06:29:01.930Z,10.73
2019-05-03T06:44:01.971Z,11.62
2019-05-03T06:59:02.262Z,11.95
2019-05-03T07:14:02.830Z,12.68
2019-05-03T07:29:05.014Z,12.65
2019-05-03T07:44:05.747Z,13.38
2019-05-03T07:59:06.451Z,14.57
2019-05-03T08:14:07.158Z,14.83
2019-05-03T08:29:16.277Z,15.39
2019-05-03T08:44:14.515Z,15.01
2019-05-03T08:59:26.813Z,14.46
2019-05-03T09:14:20.274Z,13.87
2019-05-03T09:29:22.465Z,13.82
2019-05-03T09:44:24.463Z,14.22
2019-05-03T09:59:25.530Z,12.82
2019-05-03T10:14:25.642Z,14.80
2019-05-03T10:29:25.944Z,13.82
2019-05-03T10:44:26.639Z,14.02
2019-05-03T10:59:26.911Z,13.91
2019-05-03T11:14:28.234Z,14.22
2019-05-03T11:29:28.855Z,15.46
2019-05-03T11:44:29.065Z,15.25
2019-05-03T11:59:29.573Z,13.48
2019-05-03T12:14:30.300Z,12.92
2019-05-03T12:29:31.081Z,12.17
2019-05-03T12:44:31.754Z,12.13
2019-05-03T12:59:32.134Z,14.42
2019-05-03T13:14:34.499Z,13.75
2019-05-03T13:29:34.906Z,12.19
2019-05-03T13:44:35.560Z,12.45
2019-05-03T13:59:36.047Z,13.89
2019-05-03T14:14:36.396Z,12.57
2019-05-03T14:29:36.479Z,12.16
2019-05-03T14:44:36.803Z,11.72
2019-05-03T14:59:37.533Z,11.17
2019-05-03T15:14:37.734Z,10.60
2019-05-03T15:29:56.634Z,10.44
2019-05-03T15:44:56.893Z,10.22
2019-05-03T15:59:57.129Z,10.29
2019-05-03T16:14:57.405Z,10.40
2019-05-03T16:29:57.513Z,11.25
2019-05-03T16:44:57.792Z,11.04
2019-05-03T16:59:58.155Z,10.63
2019-05-03T17:14:58.266Z,10.38
2019-05-03T17:29:58.445Z,10.11
2019-05-03T17:44:58.725Z,9.87
2019-05-03T17:59:58.961Z,9.68
2019-05-03T18:14:59.326Z,9.48
2019-05-03T18:30:00.022Z,9.18
2019-05-03T18:45:00.755Z,8.92
2019-05-03T19:00:01.430Z,8.80
2019-05-03T19:15:01.689Z,8.66
2019-05-03T19:30:02.126Z,8.70
2019-05-03T19:45:02.685Z,8.59
2019-05-03T20:00:03.064Z,8.44
2019-05-03T20:15:05.186Z,8.34
2019-05-03T20:30:05.807Z,8.23
2019-05-03T20:45:06.708Z,8.12
2019-05-03T21:00:06.840Z,7.98
2019-05-03T21:15:07.289Z,7.90
2019-05-03T21:30:07.996Z,7.64
2019-05-03T21:45:08.478Z,7.45
2019-05-03T22:00:09.077Z,7.32
2019-05-03T22:15:09.511Z,7.37
2019-05-03T22:30:09.670Z,7.43
2019-05-03T22:45:10.206Z,7.50
2019-05-03T23:00:10.848Z,7.30
2019-05-03T23:15:11.308Z,6.95
2019-05-03T23:30:11.925Z,6.55
2019-05-03T23:45:12.461Z,6.34
